createdAt,value
2019-05-18T00:02:08.537Z,38.60
2019-05-18T00:04:42.184Z,37.83
2019-05-18T00:07:15.766Z,39.83
2019-05-18T00:09:49.340Z,39.38
2019-05-18T00:12:22.894Z,37.97
2019-05-18T00:14:56.383Z,37.93
2019-05-18T00:17:30.014Z,40.17
2019-05-18T00:20:04.846Z,40.50
2019-05-18T00:22:38.394Z,40.80
2019-05-18T00:25:12.154Z,40.55
2019-05-18T00:27:45.696Z,41.60
2019-05-18T00:30:19.340Z,37.90
2019-05-18T00:32:52.821Z,39.70
2019-05-18T00:35:26.343Z,41.70
2019-05-18T00:37:59.814Z,43.25
2019-05-18T00:40:33.475Z,41.40
2019-05-18T00:43:07.055Z,43.65
2019-05-18T00:45:40.766Z,43.00
2019-05-18T00:48:14.276Z,41.20
2019-05-18T00:50:47.834Z,42.45
2019-05-18T00:53:21.540Z,38.02
2019-05-18T00:55:55.175Z,37.28
2019-05-18T00:58:28.991Z,42.95
2019-05-18T01:01:02.465Z,35.55
2019-05-18T01:03:36.015Z,39.80
2019-05-18T01:06:09.651Z,35.40
2019-05-18T01:08:43.214Z,35.58
2019-05-18T01:11:16.822Z,37.28
2019-05-18T01:13:50.397Z,32.50
2019-05-18T01:16:24.002Z,42.90
2019-05-18T01:18:57.489Z,38.40
2019-05-18T01:21:31.224Z,35.38
2019-05-18T01:24:04.970Z,32.35
2019-05-18T01:26:38.558Z,34.33
2019-05-18T01:29:12.184Z,33.70
2019-05-18T01:31:45.706Z,34.78
2019-05-18T01:34:19.256Z,33.92
2019-05-18T01:36:52.738Z,33.55
2019-05-18T01:39:26.352Z,36.38
2019-05-18T01:41:59.918Z,40.65
2019-05-18T01:44:33.400Z,38.05
2019-05-18T01:47:06.982Z,35.50
2019-05-18T01:49:40.570Z,36.60
2019-05-18T01:52:14.228Z,34.15
2019-05-18T01:54:47.851Z,37.95
2019-05-18T01:57:21.378Z,38.58
2019-05-18T01:59:54.817Z,39.40
2019-05-18T02:02:28.456Z,43.85
2019-05-18T02:05:02.123Z,39.83
2019-05-18T02:07:35.831Z,39.95
2019-05-18T02:10:09.853Z,39.98
2019-05-18T02:12:43.336Z,43.65
2019-05-18T02:15:17.098Z,44.30
2019-05-18T02:17:50.625Z,51.02
2019-05-18T02:20:24.244Z,41.13
2019-05-18T02:22:57.745Z,41.20
2019-05-18T02:25:31.282Z,45.55
2019-05-18T02:28:06.543Z,42.10
2019-05-18T02:30:40.080Z,43.17
2019-05-18T02:33:13.573Z,38.73
2019-05-18T02:35:47.120Z,45.95
2019-05-18T02:38:20.648Z,44.40
2019-05-18T02:40:54.269Z,48.50
2019-05-18T02:43:27.916Z,44.75
2019-05-18T02:46:01.471Z,43.48
2019-05-18T02:48:49.000Z,45.48
2019-05-18T02:51:11.722Z,44.15
2019-05-18T02:53:45.527Z,48.75
2019-05-18T02:56:19.207Z,44.45
2019-05-18T02:58:52.696Z,40.95
2019-05-18T03:01:26.511Z,43.00
2019-05-18T03:04:00.097Z,41.83
2019-05-18T03:06:33.667Z,41.18
2019-05-18T03:09:07.619Z,41.98
2019-05-18T03:11:41.327Z,40.33
2019-05-18T03:14:14.975Z,38.58
2019-05-18T03:16:48.532Z,36.63
2019-05-18T03:19:22.166Z,39.70
2019-05-18T03:21:55.638Z,41.68
2019-05-18T03:24:29.193Z,39.65
2019-05-18T03:27:02.725Z,39.20
2019-05-18T03:29:36.315Z,39.33
2019-05-18T03:32:09.797Z,36.28
2019-05-18T03:34:43.430Z,37.55
2019-05-18T03:37:16.911Z,37.80
2019-05-18T03:39:50.561Z,36.08
2019-05-18T03:42:24.115Z,34.70
2019-05-18T03:44:57.698Z,35.60
2019-05-18T03:47:31.252Z,35.13
2019-05-18T03:50:07.502Z,34.30
2019-05-18T03:52:40.985Z,37.10
2019-05-18T03:55:14.619Z,38.17
2019-05-18T03:57:48.099Z,31.60
2019-05-18T04:00:21.622Z,32.93
2019-05-18T04:02:55.165Z,31.12
2019-05-18T04:05:28.756Z,31.27
2019-05-18T04:08:02.215Z,32.73
2019-05-18T04:10:35.870Z,33.92
2019-05-18T04:13:09.375Z,29.63
2019-05-18T04:15:42.977Z,29.85
2019-05-18T04:18:16.471Z,35.25
2019-05-18T04:20:49.979Z,29.87
2019-05-18T04:23:23.569Z,29.92
2019-05-18T04:25:57.071Z,33.38
2019-05-18T04:28:30.603Z,33.25
2019-05-18T04:31:04.192Z,31.17
2019-05-18T04:33:37.660Z,28.27
2019-05-18T04:36:11.174Z,31.37
2019-05-18T04:38:44.655Z,31.80
2019-05-18T04:41:18.255Z,32.17
2019-05-18T04:43:51.867Z,35.43
2019-05-18T04:46:25.487Z,32.35
2019-05-18T04:48:59.033Z,31.23
2019-05-18T04:51:32.520Z,32.38
2019-05-18T04:54:06.217Z,29.60
2019-05-18T04:56:42.896Z,30.30
2019-05-18T04:59:15.189Z,30.10
2019-05-18T05:01:48.901Z,30.92
2019-05-18T05:04:22.568Z,28.65
2019-05-18T05:06:56.037Z,32.70
2019-05-18T05:09:29.536Z,31.25
2019-05-18T05:12:03.127Z,33.50
2019-05-18T05:14:36.692Z,30.37
2019-05-18T05:17:10.340Z,33.42
2019-05-18T05:19:43.821Z,30.27
2019-05-18T05:22:17.392Z,29.55
2019-05-18T05:24:50.873Z,28.42
2019-05-18T05:27:24.550Z,31.05
2019-05-18T05:29:58.288Z,28.92
2019-05-18T05:32:31.925Z,27.13
2019-05-18T05:35:06.547Z,32.20
2019-05-18T05:37:40.058Z,26.42
2019-05-18T05:40:13.884Z,28.02
2019-05-18T05:42:47.466Z,27.35
2019-05-18T05:45:21.088Z,26.37
2019-05-18T05:47:54.587Z,27.82
2019-05-18T05:50:36.047Z,29.48
2019-05-18T05:53:03.388Z,27.87
2019-05-18T05:55:36.922Z,28.92
2019-05-18T05:58:10.513Z,29.18
2019-05-18T06:00:44.141Z,28.30
2019-05-18T06:03:17.666Z,26.33
2019-05-18T06:05:51.234Z,29.12
2019-05-18T06:08:24.935Z,25.40
2019-05-18T06:10:58.478Z,27.55
2019-05-18T06:13:32.056Z,28.42
2019-05-18T06:16:05.724Z,26.02
2019-05-18T06:18:39.299Z,26.65
2019-05-18T06:21:12.782Z,25.70
2019-05-18T06:23:46.274Z,24.47
2019-05-18T06:26:19.857Z,27.27
2019-05-18T06:28:53.586Z,26.07
2019-05-18T06:31:27.078Z,25.52
2019-05-18T06:34:00.577Z,24.70
2019-05-18T06:36:34.134Z,25.17
2019-05-18T06:39:08.407Z,24.67
2019-05-18T06:41:41.870Z,23.92
2019-05-18T06:44:15.461Z,22.90
2019-05-18T06:46:48.962Z,25.05
2019-05-18T06:49:22.485Z,24.32
2019-05-18T06:51:56.062Z,25.75
2019-05-18T06:54:30.013Z,23.20
2019-05-18T06:57:04.348Z,20.57
2019-05-18T06:59:38.367Z,19.27
2019-05-18T07:02:11.903Z,19.82
2019-05-18T07:04:45.402Z,18.87
2019-05-18T07:07:19.202Z,19.20
2019-05-18T07:09:52.719Z,19.55
2019-05-18T07:12:26.268Z,20.35
2019-05-18T07:15:00.462Z,23.00
2019-05-18T07:17:34.744Z,23.32
2019-05-18T07:20:09.123Z,19.92
2019-05-18T07:22:42.743Z,20.27
2019-05-18T07:25:16.435Z,21.25
2019-05-18T07:27:50.017Z,19.20
2019-05-18T07:30:23.708Z,20.12
2019-05-18T07:32:57.180Z,19.57
2019-05-18T07:35:30.836Z,19.95
2019-05-18T07:38:04.391Z,18.10
2019-05-18T07:40:38.123Z,18.52
2019-05-18T07:43:11.621Z,17.10
2019-05-18T07:45:45.242Z,19.42
2019-05-18T07:48:18.747Z,19.10
2019-05-18T07:50:52.432Z,18.37
2019-05-18T07:53:25.933Z,17.05
2019-05-18T07:55:59.467Z,15.88
2019-05-18T07:58:33.050Z,17.02
2019-05-18T08:01:06.613Z,16.65
2019-05-18T08:03:40.115Z,14.85
2019-05-18T08:06:13.714Z,15.50
2019-05-18T08:08:47.325Z,14.98
2019-05-18T08:11:20.933Z,15.43
2019-05-18T08:13:54.418Z,16.23
2019-05-18T08:16:27.950Z,15.65
2019-05-18T08:19:01.429Z,15.15
2019-05-18T08:21:35.079Z,16.50
2019-05-18T08:24:08.758Z,14.90
2019-05-18T08:26:42.387Z,15.32
2019-05-18T08:29:15.859Z,14.60
2019-05-18T08:31:49.373Z,14.80
2019-05-18T08:34:24.013Z,14.33
2019-05-18T08:36:57.561Z,15.90
2019-05-18T08:39:31.037Z,15.23
2019-05-18T08:42:04.695Z,15.30
2019-05-18T08:44:38.173Z,14.40
2019-05-18T08:47:11.749Z,14.95
2019-05-18T08:49:45.301Z,15.88
2019-05-18T08:52:18.845Z,14.75
2019-05-18T08:54:52.386Z,14.45
2019-05-18T08:57:25.999Z,16.93
2019-05-18T08:59:59.483Z,13.15
2019-05-18T09:02:33.071Z,11.93
2019-05-18T09:05:07.176Z,11.50
2019-05-18T09:07:40.716Z,12.25
2019-05-18T09:10:16.040Z,11.40
2019-05-18T09:12:49.750Z,12.00
2019-05-18T09:15:23.439Z,10.60
2019-05-18T09:17:56.995Z,11.73
2019-05-18T09:20:30.566Z,11.20
2019-05-18T09:23:04.109Z,12.45
2019-05-18T09:25:37.654Z,10.95
2019-05-18T09:28:11.237Z,11.63
2019-05-18T09:30:45.187Z,13.62
2019-05-18T09:33:18.735Z,13.00
2019-05-18T09:35:52.266Z,13.13
2019-05-18T09:38:25.887Z,13.22
2019-05-18T09:40:59.475Z,16.05
2019-05-18T09:43:33.074Z,14.73
2019-05-18T09:46:06.696Z,13.35
2019-05-18T09:48:40.298Z,15.00
2019-05-18T09:51:14.074Z,15.23
2019-05-18T09:53:51.601Z,14.23
2019-05-18T09:56:22.935Z,13.90
2019-05-18T09:58:56.560Z,14.60
2019-05-18T10:01:30.101Z,14.47
2019-05-18T10:04:03.884Z,14.05
2019-05-18T10:06:37.446Z,13.18
2019-05-18T10:09:11.197Z,13.08
2019-05-18T10:11:44.743Z,11.83
2019-05-18T10:14:18.257Z,11.90
2019-05-18T10:16:51.842Z,11.68
2019-05-18T10:19:25.592Z,11.15
2019-05-18T10:21:59.266Z,9.55
2019-05-18T10:24:32.850Z,10.98
2019-05-18T10:27:06.519Z,9.45
2019-05-18T10:29:40.034Z,9.75
2019-05-18T10:32:13.645Z,10.98
2019-05-18T10:34:47.136Z,9.23
2019-05-18T10:37:20.612Z,9.58
2019-05-18T10:39:54.284Z,9.78
2019-05-18T10:42:27.732Z,11.95
2019-05-18T10:45:01.239Z,9.88
2019-05-18T10:47:34.728Z,9.60
2019-05-18T10:50:09.992Z,8.40
2019-05-18T10:52:43.565Z,13.40
2019-05-18T10:55:17.505Z,8.60
2019-05-18T10:57:51.062Z,8.35
2019-05-18T11:00:24.797Z,7.92
2019-05-18T11:02:58.348Z,8.58
2019-05-18T11:05:31.931Z,8.60
2019-05-18T11:08:05.580Z,9.03
2019-05-18T11:10:39.288Z,9.45
2019-05-18T11:13:12.937Z,8.30
2019-05-18T11:15:46.537Z,8.43
2019-05-18T11:18:20.090Z,9.13
2019-05-18T11:20:53.658Z,8.78
2019-05-18T11:23:27.170Z,8.18
2019-05-18T11:26:00.804Z,9.18
2019-05-18T11:28:34.354Z,8.30
2019-05-18T11:31:07.940Z,8.70
2019-05-18T11:33:41.497Z,7.87
2019-05-18T11:36:20.666Z,7.45
2019-05-18T11:38:55.020Z,7.00
2019-05-18T11:41:28.747Z,7.55
2019-05-18T11:44:02.387Z,7.78
2019-05-18T11:46:35.967Z,7.45
2019-05-18T11:49:09.568Z,7.60
2019-05-18T11:51:43.067Z,7.30
2019-05-18T11:54:16.536Z,8.10
2019-05-18T11:56:50.101Z,10.45
2019-05-18T11:59:23.563Z,7.17
2019-05-18T12:01:57.057Z,6.95
2019-05-18T12:04:30.617Z,7.55
2019-05-18T12:07:04.297Z,6.58
2019-05-18T12:09:37.813Z,7.97
2019-05-18T12:12:13.879Z,7.22
2019-05-18T12:14:47.412Z,7.22
2019-05-18T12:17:20.917Z,6.78
2019-05-18T12:19:54.376Z,6.28
2019-05-18T12:22:27.907Z,7.37
2019-05-18T12:25:01.431Z,6.90
2019-05-18T12:27:34.937Z,6.87
2019-05-18T12:30:10.885Z,6.53
2019-05-18T12:32:44.485Z,7.12
2019-05-18T12:35:19.525Z,6.67
2019-05-18T12:37:53.162Z,8.30
2019-05-18T12:40:26.875Z,6.80
2019-05-18T12:43:00.411Z,6.15
2019-05-18T12:45:34.071Z,6.20
2019-05-18T12:48:07.672Z,7.78
2019-05-18T12:50:41.264Z,10.13
2019-05-18T12:53:17.577Z,6.62
2019-05-18T12:55:50.212Z,6.00
2019-05-18T12:58:23.801Z,7.50
2019-05-18T13:00:57.436Z,6.50
2019-05-18T13:03:30.935Z,5.67
2019-05-18T13:06:05.745Z,6.00
2019-05-18T13:08:39.259Z,6.83
2019-05-18T13:11:12.927Z,6.72
2019-05-18T13:13:46.449Z,6.08
2019-05-18T13:16:20.054Z,6.10
2019-05-18T13:18:53.656Z,5.85
2019-05-18T13:21:27.229Z,5.67
2019-05-18T13:24:00.916Z,6.62
2019-05-18T13:26:34.434Z,6.42
2019-05-18T13:29:07.930Z,7.05
2019-05-18T13:31:41.481Z,6.30
2019-05-18T13:34:15.001Z,6.75
2019-05-18T13:36:48.475Z,5.72
2019-05-18T13:39:22.116Z,6.15
2019-05-18T13:41:55.647Z,5.95
2019-05-18T13:44:29.293Z,6.50
2019-05-18T13:47:02.765Z,6.42
2019-05-18T13:49:36.270Z,6.50
2019-05-18T13:52:09.839Z,5.95
2019-05-18T13:54:43.339Z,6.22
2019-05-18T13:57:17.012Z,6.40
2019-05-18T13:59:50.510Z,6.60
2019-05-18T14:02:24.144Z,6.40
2019-05-18T14:04:57.791Z,6.30
2019-05-18T14:07:31.456Z,7.25
2019-05-18T14:10:12.464Z,6.20
2019-05-18T14:12:45.525Z,6.50
2019-05-18T14:15:22.922Z,6.97
2019-05-18T14:17:55.960Z,6.40
2019-05-18T14:20:29.557Z,7.30
2019-05-18T14:23:03.078Z,7.78
2019-05-18T14:25:36.831Z,6.05
2019-05-18T14:28:10.403Z,8.48
2019-05-18T14:30:43.986Z,6.67
2019-05-18T14:33:18.877Z,5.90
2019-05-18T14:35:52.380Z,6.70
2019-05-18T14:38:25.858Z,6.60
2019-05-18T14:40:59.463Z,6.03
2019-05-18T14:43:33.160Z,6.20
2019-05-18T14:46:06.788Z,5.80
2019-05-18T14:48:40.330Z,5.67
2019-05-18T14:51:13.974Z,6.05
2019-05-18T14:53:47.448Z,6.65
2019-05-18T14:56:21.021Z,8.60
2019-05-18T14:58:54.555Z,6.42
2019-05-18T15:01:28.067Z,5.45
2019-05-18T15:04:01.720Z,6.15
2019-05-18T15:06:35.203Z,5.80
2019-05-18T15:09:08.736Z,6.03
2019-05-18T15:11:42.456Z,5.42
2019-05-18T15:14:15.973Z,7.17
2019-05-18T15:16:52.831Z,5.47
2019-05-18T15:22:31.170Z,5.65
2019-05-18T15:25:05.309Z,6.50
2019-05-18T15:27:38.970Z,5.92
2019-05-18T15:30:13.304Z,6.37
2019-05-18T15:32:47.056Z,6.75
2019-05-18T15:35:20.787Z,5.20
2019-05-18T15:37:54.445Z,5.47
2019-05-18T15:40:27.996Z,5.40
2019-05-18T15:43:01.478Z,5.28
2019-05-18T15:45:35.205Z,5.12
2019-05-18T15:48:08.814Z,5.25
2019-05-18T15:50:42.354Z,5.08
2019-05-18T15:53:16.035Z,5.55
2019-05-18T15:55:49.513Z,5.25
2019-05-18T15:58:23.173Z,4.90
2019-05-18T16:00:56.783Z,3.90
2019-05-18T16:03:30.469Z,4.87
2019-05-18T16:06:04.082Z,17.52
2019-05-18T16:08:37.643Z,6.65
2019-05-18T16:11:11.183Z,6.83
2019-05-18T16:13:44.744Z,6.83
2019-05-18T16:16:18.302Z,4.70
2019-05-18T16:18:51.830Z,8.98
2019-05-18T16:21:25.292Z,7.42
2019-05-18T16:23:58.820Z,16.07
2019-05-18T16:26:32.382Z,4.95
2019-05-18T16:29:06.150Z,7.35
2019-05-18T16:31:39.854Z,5.65
2019-05-18T16:34:13.358Z,5.87
2019-05-18T16:36:46.995Z,4.22
2019-05-18T16:39:20.576Z,6.87
2019-05-18T16:41:54.064Z,4.80
2019-05-18T16:44:27.616Z,8.00
2019-05-18T16:47:01.137Z,5.08
2019-05-18T16:49:38.830Z,5.97
2019-05-18T16:52:12.384Z,4.50
2019-05-18T16:54:45.965Z,6.47
2019-05-18T16:57:19.635Z,4.28
2019-05-18T16:59:53.293Z,6.62
2019-05-18T17:02:31.802Z,4.47
2019-05-18T17:05:02.219Z,4.30
2019-05-18T17:07:36.088Z,4.15
2019-05-18T17:10:10.250Z,4.22
2019-05-18T17:12:44.015Z,4.17
2019-05-18T17:15:17.924Z,4.85
2019-05-18T17:17:51.574Z,4.75
2019-05-18T17:20:25.192Z,5.40
2019-05-18T17:22:58.955Z,4.42
2019-05-18T17:25:32.666Z,8.78
2019-05-18T17:28:06.275Z,4.95
2019-05-18T17:30:42.575Z,4.67
2019-05-18T17:33:15.284Z,4.20
2019-05-18T17:35:59.858Z,4.58
2019-05-18T17:38:24.216Z,4.60
2019-05-18T17:40:57.777Z,6.20
2019-05-18T17:43:31.457Z,3.65
2019-05-18T17:46:05.141Z,5.08
2019-05-18T17:48:38.619Z,5.72
2019-05-18T17:51:12.175Z,5.80
2019-05-18T17:53:45.655Z,6.53
2019-05-18T17:56:19.181Z,5.47
2019-05-18T17:58:52.695Z,5.03
2019-05-18T18:01:26.265Z,5.20
2019-05-18T18:03:59.815Z,4.85
2019-05-18T18:06:33.315Z,5.37
2019-05-18T18:09:08.243Z,5.25
2019-05-18T18:11:41.732Z,6.62
2019-05-18T18:14:15.208Z,4.58
2019-05-18T18:16:48.685Z,5.05
2019-05-18T18:19:22.342Z,5.05
2019-05-18T18:21:55.825Z,5.05
2019-05-18T18:24:29.445Z,5.30
2019-05-18T18:27:03.000Z,5.78
2019-05-18T18:29:36.656Z,5.30
2019-05-18T18:32:10.219Z,6.22
2019-05-18T18:34:43.948Z,5.97
2019-05-18T18:37:17.423Z,8.40
2019-05-18T18:39:50.959Z,7.28
2019-05-18T18:42:25.601Z,5.90
2019-05-18T18:44:59.136Z,7.00
2019-05-18T18:47:32.624Z,6.35
2019-05-18T18:50:09.455Z,6.28
2019-05-18T18:52:45.821Z,5.30
2019-05-18T18:55:19.389Z,6.85
2019-05-18T18:57:52.874Z,6.40
2019-05-18T19:00:26.351Z,7.83
2019-05-18T19:02:59.827Z,10.10
2019-05-18T19:05:33.358Z,6.95
2019-05-18T19:08:06.996Z,7.33
2019-05-18T19:10:40.568Z,6.85
2019-05-18T19:13:14.052Z,6.25
2019-05-18T19:15:47.555Z,9.08
2019-05-18T19:18:21.042Z,8.98
2019-05-18T19:20:54.585Z,6.40
2019-05-18T19:23:28.154Z,7.33
2019-05-18T19:26:01.637Z,7.35
2019-05-18T19:28:35.154Z,7.15
2019-05-18T19:31:08.611Z,9.43
2019-05-18T19:33:42.115Z,7.55
2019-05-18T19:36:15.639Z,9.75
2019-05-18T19:38:49.218Z,10.65
2019-05-18T19:41:22.817Z,11.38
2019-05-18T19:43:56.473Z,10.80
2019-05-18T19:46:30.026Z,13.05
2019-05-18T19:49:03.532Z,10.80
2019-05-18T19:51:37.062Z,11.38
2019-05-18T19:54:10.663Z,11.50
2019-05-18T19:56:44.627Z,11.53
2019-05-18T19:59:18.311Z,12.18
2019-05-18T20:01:51.799Z,12.53
2019-05-18T20:04:25.356Z,12.63
2019-05-18T20:06:58.851Z,13.30
2019-05-18T20:09:32.331Z,14.50
2019-05-18T20:12:05.870Z,15.93
2019-05-18T20:14:39.376Z,17.30
2019-05-18T20:17:12.959Z,17.15
2019-05-18T20:19:46.525Z,17.25
2019-05-18T20:22:20.067Z,19.42
2019-05-18T20:24:53.649Z,17.65
2019-05-18T20:27:27.202Z,19.98
2019-05-18T20:30:00.696Z,17.75
2019-05-18T20:32:34.213Z,19.07
2019-05-18T20:35:08.519Z,20.02
2019-05-18T20:37:42.477Z,20.72
2019-05-18T20:40:16.095Z,20.00
2019-05-18T20:42:49.633Z,21.00
2019-05-18T20:45:23.282Z,21.17
2019-05-18T20:47:56.764Z,21.25
2019-05-18T20:50:30.277Z,20.15
2019-05-18T20:53:03.828Z,22.07
2019-05-18T20:55:37.322Z,23.27
2019-05-18T20:58:10.879Z,21.10
2019-05-18T21:00:44.546Z,22.95
2019-05-18T21:03:18.127Z,23.22
2019-05-18T21:05:51.677Z,23.22
2019-05-18T21:08:25.151Z,21.90
2019-05-18T21:10:58.659Z,22.60
2019-05-18T21:13:32.155Z,23.25
2019-05-18T21:16:05.904Z,26.10
2019-05-18T21:18:39.386Z,27.75
2019-05-18T21:21:12.885Z,24.92
2019-05-18T21:23:46.356Z,25.50
2019-05-18T21:26:19.852Z,27.00
2019-05-18T21:28:56.389Z,28.50
2019-05-18T21:31:28.536Z,29.57
2019-05-18T21:34:02.012Z,25.30
2019-05-18T21:36:35.513Z,27.27
2019-05-18T21:39:08.985Z,29.87
2019-05-18T21:41:42.595Z,28.87
2019-05-18T21:44:16.106Z,29.37
2019-05-18T21:46:49.732Z,27.82
2019-05-18T21:49:23.233Z,28.27
2019-05-18T21:51:56.778Z,27.45
2019-05-18T21:54:30.308Z,30.60
2019-05-18T21:57:03.780Z,30.97
2019-05-18T21:59:37.347Z,30.62
2019-05-18T22:02:11.226Z,29.50
2019-05-18T22:04:44.863Z,29.32
2019-05-18T22:07:18.476Z,30.65
2019-05-18T22:09:53.790Z,32.10
2019-05-18T22:12:27.690Z,31.77
2019-05-18T22:15:03.379Z,31.65
2019-05-18T22:17:54.927Z,38.00
2019-05-18T22:20:28.503Z,31.33
2019-05-18T22:23:02.330Z,34.70
2019-05-18T22:25:35.975Z,34.13
2019-05-18T22:28:09.464Z,34.73
2019-05-18T22:30:43.117Z,33.58
2019-05-18T22:33:16.668Z,33.20
2019-05-18T22:35:50.268Z,32.55
2019-05-18T22:38:23.760Z,31.62
2019-05-18T22:40:57.284Z,33.63
2019-05-18T22:43:30.849Z,33.02
2019-05-18T22:46:04.356Z,36.20
2019-05-18T22:48:41.182Z,34.35
2019-05-18T22:51:13.259Z,37.23
2019-05-18T22:53:46.775Z,35.03
2019-05-18T22:56:20.417Z,33.50
2019-05-18T22:58:53.887Z,35.15
2019-05-18T23:01:27.925Z,35.88
2019-05-18T23:04:01.475Z,33.90
2019-05-18T23:06:35.058Z,34.75
2019-05-18T23:09:08.683Z,33.48
2019-05-18T23:11:46.792Z,35.08
2019-05-18T23:14:20.350Z,32.78
2019-05-18T23:16:53.974Z,34.83
2019-05-18T23:19:27.552Z,37.00
2019-05-18T23:22:01.067Z,37.25
2019-05-18T23:24:34.624Z,38.17
2019-05-18T23:27:08.269Z,38.92
2019-05-18T23:29:41.872Z,37.05
2019-05-18T23:32:15.785Z,40.88
2019-05-18T23:34:49.325Z,39.83
2019-05-18T23:37:23.051Z,39.78
2019-05-18T23:39:56.726Z,39.95
2019-05-18T23:42:30.246Z,37.08
2019-05-18T23:45:05.293Z,40.80
2019-05-18T23:47:38.921Z,40.12
2019-05-18T23:50:12.690Z,38.73
2019-05-18T23:52:46.287Z,40.05
2019-05-18T23:55:19.832Z,39.40
2019-05-18T23:57:53.423Z,39.10
